sensor_id;sensor_type;location;lat;lon;timestamp;P1;durP1;ratioP1;P2;durP2;ratioP2
44486;SDS011;30191;50.908;6.962;2023-12-20T00:00:25;6.82;;;6.22;;
44486;SDS011;30191;50.908;6.962;2023-12-20T00:02:51;6.30;;;5.80;;
44486;SDS011;30191;50.908;6.962;2023-12-20T00:05:16;7.22;;;6.55;;
44486;SDS011;30191;50.908;6.962;2023-12-20T00:07:42;7.60;;;6.90;;
44486;SDS011;30191;50.908;6.962;2023-12-20T00:10:08;6.78;;;6.18;;
44486;SDS011;30191;50.908;6.962;2023-12-20T00:12:34;8.10;;;6.43;;
44486;SDS011;30191;50.908;6.962;2023-12-20T00:14:59;7.38;;;6.68;;
44486;SDS011;30191;50.908;6.962;2023-12-20T00:17:25;6.93;;;6.22;;
44486;SDS011;30191;50.908;6.962;2023-12-20T00:19:51;7.28;;;6.60;;
44486;SDS011;30191;50.908;6.962;2023-12-20T00:22:16;7.25;;;6.65;;
44486;SDS011;30191;50.908;6.962;2023-12-20T00:24:42;11.18;;;7.30;;
44486;SDS011;30191;50.908;6.962;2023-12-20T00:27:08;7.95;;;6.82;;
44486;SDS011;30191;50.908;6.962;2023-12-20T00:29:33;7.97;;;7.28;;
44486;SDS011;30191;50.908;6.962;2023-12-20T00:31:59;7.75;;;7.05;;
44486;SDS011;30191;50.908;6.962;2023-12-20T00:34:24;8.15;;;7.35;;
44486;SDS011;30191;50.908;6.962;2023-12-20T00:36:50;8.07;;;7.32;;
44486;SDS011;30191;50.908;6.962;2023-12-20T00:39:16;8.63;;;7.60;;
44486;SDS011;30191;50.908;6.962;2023-12-20T00:41:41;7.60;;;6.78;;
44486;SDS011;30191;50.908;6.962;2023-12-20T00:44:07;6.15;;;5.15;;
44486;SDS011;30191;50.908;6.962;2023-12-20T00:46:32;5.47;;;4.85;;
44486;SDS011;30191;50.908;6.962;2023-12-20T00:48:58;5.72;;;5.22;;
44486;SDS011;30191;50.908;6.962;2023-12-20T00:51:24;5.30;;;4.88;;
44486;SDS011;30191;50.908;6.962;2023-12-20T00:53:50;5.68;;;5.18;;
44486;SDS011;30191;50.908;6.962;2023-12-20T00:56:19;5.60;;;5.10;;
44486;SDS011;30191;50.908;6.962;2023-12-20T00:58:45;5.10;;;4.70;;
44486;SDS011;30191;50.908;6.962;2023-12-20T01:01:11;6.13;;;5.53;;
44486;SDS011;30191;50.908;6.962;2023-12-20T01:03:37;5.88;;;5.18;;
44486;SDS011;30191;50.908;6.962;2023-12-20T01:06:03;7.32;;;4.88;;
44486;SDS011;30191;50.908;6.962;2023-12-20T01:08:30;5.68;;;5.10;;
44486;SDS011;30191;50.908;6.962;2023-12-20T01:10:55;6.35;;;4.80;;
44486;SDS011;30191;50.908;6.962;2023-12-20T01:13:21;9.27;;;5.03;;
44486;SDS011;30191;50.908;6.962;2023-12-20T01:15:47;5.53;;;5.03;;
44486;SDS011;30191;50.908;6.962;2023-12-20T01:18:13;5.38;;;4.60;;
44486;SDS011;30191;50.908;6.962;2023-12-20T01:20:39;5.65;;;4.95;;
44486;SDS011;30191;50.908;6.962;2023-12-20T01:23:05;5.82;;;5.00;;
44486;SDS011;30191;50.908;6.962;2023-12-20T01:25:30;7.30;;;4.68;;
44486;SDS011;30191;50.908;6.962;2023-12-20T01:27:56;5.53;;;4.93;;
44486;SDS011;30191;50.908;6.962;2023-12-20T01:30:22;8.23;;;5.38;;
44486;SDS011;30191;50.908;6.962;2023-12-20T01:32:47;9.02;;;5.63;;
44486;SDS011;30191;50.908;6.962;2023-12-20T01:35:13;7.43;;;5.45;;
44486;SDS011;30191;50.908;6.962;2023-12-20T01:37:39;9.30;;;6.18;;
44486;SDS011;30191;50.908;6.962;2023-12-20T01:40:05;7.90;;;5.70;;
44486;SDS011;30191;50.908;6.962;2023-12-20T01:42:31;8.88;;;6.38;;
44486;SDS011;30191;50.908;6.962;2023-12-20T01:44:56;9.25;;;7.55;;
44486;SDS011;30191;50.908;6.962;2023-12-20T01:47:22;13.27;;;7.38;;
44486;SDS011;30191;50.908;6.962;2023-12-20T01:49:48;12.43;;;7.80;;
44486;SDS011;30191;50.908;6.962;2023-12-20T01:52:14;9.85;;;7.80;;
44486;SDS011;30191;50.908;6.962;2023-12-20T01:54:40;10.60;;;8.45;;
44486;SDS011;30191;50.908;6.962;2023-12-20T01:57:07;13.70;;;8.70;;
44486;SDS011;30191;50.908;6.962;2023-12-20T01:59:34;10.90;;;7.90;;
44486;SDS011;30191;50.908;6.962;2023-12-20T02:02:00;13.75;;;8.20;;
44486;SDS011;30191;50.908;6.962;2023-12-20T02:04:27;9.50;;;7.40;;
44486;SDS011;30191;50.908;6.962;2023-12-20T02:06:53;12.70;;;7.45;;
44486;SDS011;30191;50.908;6.962;2023-12-20T02:09:20;9.48;;;6.22;;
44486;SDS011;30191;50.908;6.962;2023-12-20T02:11:45;11.32;;;5.70;;
44486;SDS011;30191;50.908;6.962;2023-12-20T02:14:11;10.45;;;5.47;;
44486;SDS011;30191;50.908;6.962;2023-12-20T02:16:37;10.20;;;5.07;;
44486;SDS011;30191;50.908;6.962;2023-12-20T02:19:03;12.68;;;5.40;;
44486;SDS011;30191;50.908;6.962;2023-12-20T02:21:33;8.60;;;5.00;;
44486;SDS011;30191;50.908;6.962;2023-12-20T02:24:02;11.23;;;4.88;;
44486;SDS011;30191;50.908;6.962;2023-12-20T02:26:27;10.82;;;5.10;;
44486;SDS011;30191;50.908;6.962;2023-12-20T02:28:53;11.18;;;4.97;;
44486;SDS011;30191;50.908;6.962;2023-12-20T02:31:23;18.23;;;4.70;;
44486;SDS011;30191;50.908;6.962;2023-12-20T02:33:48;14.43;;;4.22;;
44486;SDS011;30191;50.908;6.962;2023-12-20T02:36:14;9.52;;;3.53;;
44486;SDS011;30191;50.908;6.962;2023-12-20T02:38:40;14.25;;;3.33;;
44486;SDS011;30191;50.908;6.962;2023-12-20T02:41:05;10.77;;;3.17;;
44486;SDS011;30191;50.908;6.962;2023-12-20T02:43:31;12.13;;;2.97;;
44486;SDS011;30191;50.908;6.962;2023-12-20T02:45:56;12.93;;;2.83;;
44486;SDS011;30191;50.908;6.962;2023-12-20T02:48:22;10.43;;;2.75;;
44486;SDS011;30191;50.908;6.962;2023-12-20T02:50:48;14.20;;;2.40;;
44486;SDS011;30191;50.908;6.962;2023-12-20T02:53:14;13.27;;;2.83;;
44486;SDS011;30191;50.908;6.962;2023-12-20T02:55:39;11.93;;;2.78;;
44486;SDS011;30191;50.908;6.962;2023-12-20T02:58:05;14.38;;;2.90;;
44486;SDS011;30191;50.908;6.962;2023-12-20T03:00:31;13.32;;;2.75;;
44486;SDS011;30191;50.908;6.962;2023-12-20T03:02:56;13.82;;;2.70;;
44486;SDS011;30191;50.908;6.962;2023-12-20T03:05:24;12.88;;;2.83;;
44486;SDS011;30191;50.908;6.962;2023-12-20T03:07:50;15.07;;;2.50;;
44486;SDS011;30191;50.908;6.962;2023-12-20T03:10:16;11.45;;;2.20;;
44486;SDS011;30191;50.908;6.962;2023-12-20T03:12:43;12.27;;;2.10;;
44486;SDS011;30191;50.908;6.962;2023-12-20T03:15:09;13.63;;;2.20;;
44486;SDS011;30191;50.908;6.962;2023-12-20T03:17:35;12.00;;;2.25;;
44486;SDS011;30191;50.908;6.962;2023-12-20T03:20:00;10.13;;;2.17;;
44486;SDS011;30191;50.908;6.962;2023-12-20T03:22:26;12.85;;;2.17;;
44486;SDS011;30191;50.908;6.962;2023-12-20T03:24:51;12.57;;;2.08;;
44486;SDS011;30191;50.908;6.962;2023-12-20T03:27:17;10.63;;;2.55;;
44486;SDS011;30191;50.908;6.962;2023-12-20T03:29:43;12.43;;;2.25;;
44486;SDS011;30191;50.908;6.962;2023-12-20T03:32:08;13.43;;;2.38;;
44486;SDS011;30191;50.908;6.962;2023-12-20T03:34:34;9.73;;;2.30;;
44486;SDS011;30191;50.908;6.962;2023-12-20T03:37:00;13.88;;;2.67;;
44486;SDS011;30191;50.908;6.962;2023-12-20T03:39:25;13.60;;;2.90;;
44486;SDS011;30191;50.908;6.962;2023-12-20T03:41:51;14.82;;;2.40;;
44486;SDS011;30191;50.908;6.962;2023-12-20T03:44:16;12.52;;;2.38;;
44486;SDS011;30191;50.908;6.962;2023-12-20T03:46:42;14.23;;;2.75;;
44486;SDS011;30191;50.908;6.962;2023-12-20T03:49:08;11.52;;;2.10;;
44486;SDS011;30191;50.908;6.962;2023-12-20T03:51:33;16.20;;;2.80;;
44486;SDS011;30191;50.908;6.962;2023-12-20T03:53:59;14.27;;;2.53;;
44486;SDS011;30191;50.908;6.962;2023-12-20T03:56:24;15.38;;;2.35;;
44486;SDS011;30191;50.908;6.962;2023-12-20T03:58:50;9.27;;;2.30;;
44486;SDS011;30191;50.908;6.962;2023-12-20T04:01:16;10.05;;;2.30;;
44486;SDS011;30191;50.908;6.962;2023-12-20T04:03:41;15.93;;;2.67;;
44486;SDS011;30191;50.908;6.962;2023-12-20T04:06:07;12.75;;;2.58;;
44486;SDS011;30191;50.908;6.962;2023-12-20T04:08:32;11.75;;;2.45;;
44486;SDS011;30191;50.908;6.962;2023-12-20T04:10:58;11.55;;;2.15;;
44486;SDS011;30191;50.908;6.962;2023-12-20T04:13:24;13.80;;;2.85;;
44486;SDS011;30191;50.908;6.962;2023-12-20T04:15:49;15.93;;;2.55;;
44486;SDS011;30191;50.908;6.962;2023-12-20T04:18:16;10.15;;;2.42;;
44486;SDS011;30191;50.908;6.962;2023-12-20T04:20:42;18.10;;;3.25;;
44486;SDS011;30191;50.908;6.962;2023-12-20T04:23:07;11.50;;;2.47;;
44486;SDS011;30191;50.908;6.962;2023-12-20T04:25:33;20.17;;;2.90;;
44486;SDS011;30191;50.908;6.962;2023-12-20T04:27:59;14.98;;;2.60;;
44486;SDS011;30191;50.908;6.962;2023-12-20T04:30:24;16.23;;;3.22;;
44486;SDS011;30191;50.908;6.962;2023-12-20T04:32:50;17.08;;;3.25;;
44486;SDS011;30191;50.908;6.962;2023-12-20T04:35:15;11.73;;;3.13;;
44486;SDS011;30191;50.908;6.962;2023-12-20T04:37:41;14.55;;;3.92;;
44486;SDS011;30191;50.908;6.962;2023-12-20T04:40:07;17.45;;;4.07;;
44486;SDS011;30191;50.908;6.962;2023-12-20T04:42:33;16.65;;;3.72;;
44486;SDS011;30191;50.908;6.962;2023-12-20T04:44:59;12.75;;;3.75;;
44486;SDS011;30191;50.908;6.962;2023-12-20T04:47:24;14.45;;;3.78;;
44486;SDS011;30191;50.908;6.962;2023-12-20T04:49:50;14.15;;;3.33;;
44486;SDS011;30191;50.908;6.962;2023-12-20T04:52:16;17.88;;;3.72;;
44486;SDS011;30191;50.908;6.962;2023-12-20T04:54:41;14.27;;;3.30;;
44486;SDS011;30191;50.908;6.962;2023-12-20T04:57:07;13.57;;;3.10;;
44486;SDS011;30191;50.908;6.962;2023-12-20T04:59:32;18.10;;;3.88;;
44486;SDS011;30191;50.908;6.962;2023-12-20T05:01:58;15.38;;;4.00;;
44486;SDS011;30191;50.908;6.962;2023-12-20T05:04:24;11.85;;;3.75;;
44486;SDS011;30191;50.908;6.962;2023-12-20T05:06:49;17.90;;;3.75;;
44486;SDS011;30191;50.908;6.962;2023-12-20T05:09:15;19.27;;;4.05;;
44486;SDS011;30191;50.908;6.962;2023-12-20T05:11:41;19.80;;;3.83;;
44486;SDS011;30191;50.908;6.962;2023-12-20T05:14:07;11.70;;;3.67;;
44486;SDS011;30191;50.908;6.962;2023-12-20T05:16:32;13.43;;;3.17;;
44486;SDS011;30191;50.908;6.962;2023-12-20T05:18:58;15.90;;;3.53;;
44486;SDS011;30191;50.908;6.962;2023-12-20T05:21:26;11.07;;;3.20;;
44486;SDS011;30191;50.908;6.962;2023-12-20T05:23:51;14.48;;;3.30;;
44486;SDS011;30191;50.908;6.962;2023-12-20T05:26:17;15.30;;;3.67;;
44486;SDS011;30191;50.908;6.962;2023-12-20T05:28:43;16.77;;;4.10;;
44486;SDS011;30191;50.908;6.962;2023-12-20T05:31:08;17.88;;;4.40;;
44486;SDS011;30191;50.908;6.962;2023-12-20T05:33:34;16.58;;;4.05;;
44486;SDS011;30191;50.908;6.962;2023-12-20T05:36:00;13.23;;;4.05;;
44486;SDS011;30191;50.908;6.962;2023-12-20T05:38:25;17.00;;;3.72;;
44486;SDS011;30191;50.908;6.962;2023-12-20T05:40:51;14.60;;;3.92;;
44486;SDS011;30191;50.908;6.962;2023-12-20T05:43:17;18.02;;;3.92;;
44486;SDS011;30191;50.908;6.962;2023-12-20T05:45:42;8.77;;;3.30;;
44486;SDS011;30191;50.908;6.962;2023-12-20T05:48:08;14.27;;;3.67;;
44486;SDS011;30191;50.908;6.962;2023-12-20T05:50:34;14.90;;;3.58;;
44486;SDS011;30191;50.908;6.962;2023-12-20T05:53:00;16.75;;;4.18;;
44486;SDS011;30191;50.908;6.962;2023-12-20T05:55:26;13.82;;;3.38;;
44486;SDS011;30191;50.908;6.962;2023-12-20T05:57:51;15.15;;;3.30;;
44486;SDS011;30191;50.908;6.962;2023-12-20T06:00:17;12.88;;;3.55;;
44486;SDS011;30191;50.908;6.962;2023-12-20T06:02:43;13.68;;;3.53;;
44486;SDS011;30191;50.908;6.962;2023-12-20T06:05:09;17.55;;;3.17;;
44486;SDS011;30191;50.908;6.962;2023-12-20T06:07:34;15.10;;;4.05;;
44486;SDS011;30191;50.908;6.962;2023-12-20T06:10:00;13.07;;;3.38;;
44486;SDS011;30191;50.908;6.962;2023-12-20T06:12:26;18.63;;;3.58;;
44486;SDS011;30191;50.908;6.962;2023-12-20T06:14:53;16.00;;;3.70;;
44486;SDS011;30191;50.908;6.962;2023-12-20T06:17:19;14.13;;;3.70;;
44486;SDS011;30191;50.908;6.962;2023-12-20T06:19:45;13.65;;;4.00;;
44486;SDS011;30191;50.908;6.962;2023-12-20T06:22:13;21.33;;;4.38;;
44486;SDS011;30191;50.908;6.962;2023-12-20T06:24:39;19.45;;;4.40;;
44486;SDS011;30191;50.908;6.962;2023-12-20T06:27:04;21.73;;;4.63;;
44486;SDS011;30191;50.908;6.962;2023-12-20T06:29:30;18.17;;;4.53;;
44486;SDS011;30191;50.908;6.962;2023-12-20T06:31:56;21.50;;;4.13;;
44486;SDS011;30191;50.908;6.962;2023-12-20T06:34:21;15.32;;;3.80;;
44486;SDS011;30191;50.908;6.962;2023-12-20T06:36:47;17.98;;;4.28;;
44486;SDS011;30191;50.908;6.962;2023-12-20T06:39:13;16.45;;;4.38;;
44486;SDS011;30191;50.908;6.962;2023-12-20T06:41:39;20.35;;;4.40;;
44486;SDS011;30191;50.908;6.962;2023-12-20T06:44:05;16.90;;;3.60;;
44486;SDS011;30191;50.908;6.962;2023-12-20T06:46:30;13.52;;;4.03;;
44486;SDS011;30191;50.908;6.962;2023-12-20T06:48:56;18.95;;;3.92;;
44486;SDS011;30191;50.908;6.962;2023-12-20T06:51:22;20.05;;;4.15;;
44486;SDS011;30191;50.908;6.962;2023-12-20T06:53:50;17.30;;;3.90;;
44486;SDS011;30191;50.908;6.962;2023-12-20T06:56:19;17.35;;;3.70;;
44486;SDS011;30191;50.908;6.962;2023-12-20T06:58:44;14.90;;;3.95;;
44486;SDS011;30191;50.908;6.962;2023-12-20T07:01:13;19.73;;;3.80;;
44486;SDS011;30191;50.908;6.962;2023-12-20T07:03:40;13.80;;;3.78;;
44486;SDS011;30191;50.908;6.962;2023-12-20T07:06:06;19.67;;;3.83;;
44486;SDS011;30191;50.908;6.962;2023-12-20T07:08:32;22.73;;;4.00;;
44486;SDS011;30191;50.908;6.962;2023-12-20T07:10:57;16.55;;;4.20;;
44486;SDS011;30191;50.908;6.962;2023-12-20T07:13:23;13.75;;;3.55;;
44486;SDS011;30191;50.908;6.962;2023-12-20T07:15:49;17.17;;;3.60;;
44486;SDS011;30191;50.908;6.962;2023-12-20T07:18:15;18.35;;;3.80;;
44486;SDS011;30191;50.908;6.962;2023-12-20T07:20:41;16.65;;;3.08;;
44486;SDS011;30191;50.908;6.962;2023-12-20T07:23:08;15.18;;;3.47;;
44486;SDS011;30191;50.908;6.962;2023-12-20T07:25:33;12.52;;;3.35;;
44486;SDS011;30191;50.908;6.962;2023-12-20T07:27:59;18.92;;;3.45;;
44486;SDS011;30191;50.908;6.962;2023-12-20T07:30:25;16.27;;;3.95;;
44486;SDS011;30191;50.908;6.962;2023-12-20T07:32:50;17.17;;;3.80;;
44486;SDS011;30191;50.908;6.962;2023-12-20T07:35:17;15.85;;;3.13;;
44486;SDS011;30191;50.908;6.962;2023-12-20T07:37:43;16.98;;;3.65;;
44486;SDS011;30191;50.908;6.962;2023-12-20T07:40:09;18.70;;;3.90;;
44486;SDS011;30191;50.908;6.962;2023-12-20T07:42:35;15.55;;;3.35;;
44486;SDS011;30191;50.908;6.962;2023-12-20T07:45:00;14.02;;;3.47;;
44486;SDS011;30191;50.908;6.962;2023-12-20T07:47:26;18.45;;;3.90;;
44486;SDS011;30191;50.908;6.962;2023-12-20T07:49:52;16.85;;;4.18;;
44486;SDS011;30191;50.908;6.962;2023-12-20T07:52:18;15.05;;;3.28;;
44486;SDS011;30191;50.908;6.962;2023-12-20T07:54:44;18.95;;;4.22;;
44486;SDS011;30191;50.908;6.962;2023-12-20T07:57:10;15.27;;;3.63;;
44486;SDS011;30191;50.908;6.962;2023-12-20T07:59:36;14.32;;;3.50;;
44486;SDS011;30191;50.908;6.962;2023-12-20T08:02:01;18.05;;;3.90;;
44486;SDS011;30191;50.908;6.962;2023-12-20T08:04:27;17.95;;;3.38;;
44486;SDS011;30191;50.908;6.962;2023-12-20T08:06:53;20.30;;;4.00;;
44486;SDS011;30191;50.908;6.962;2023-12-20T08:09:18;19.23;;;3.58;;
44486;SDS011;30191;50.908;6.962;2023-12-20T08:11:45;19.60;;;3.67;;
44486;SDS011;30191;50.908;6.962;2023-12-20T08:14:11;17.48;;;3.15;;
44486;SDS011;30191;50.908;6.962;2023-12-20T08:16:37;14.93;;;3.60;;
44486;SDS011;30191;50.908;6.962;2023-12-20T08:19:03;13.98;;;4.20;;
44486;SDS011;30191;50.908;6.962;2023-12-20T08:21:28;18.65;;;3.88;;
44486;SDS011;30191;50.908;6.962;2023-12-20T08:23:54;13.40;;;3.58;;
44486;SDS011;30191;50.908;6.962;2023-12-20T08:26:20;19.50;;;3.88;;
44486;SDS011;30191;50.908;6.962;2023-12-20T08:28:48;18.90;;;3.70;;
44486;SDS011;30191;50.908;6.962;2023-12-20T08:31:14;15.98;;;3.15;;
44486;SDS011;30191;50.908;6.962;2023-12-20T08:33:41;15.57;;;3.35;;
44486;SDS011;30191;50.908;6.962;2023-12-20T08:36:10;11.02;;;3.42;;
44486;SDS011;30191;50.908;6.962;2023-12-20T08:38:36;18.75;;;3.95;;
44486;SDS011;30191;50.908;6.962;2023-12-20T08:41:02;13.77;;;3.33;;
44486;SDS011;30191;50.908;6.962;2023-12-20T08:43:30;14.55;;;3.30;;
44486;SDS011;30191;50.908;6.962;2023-12-20T08:45:57;14.82;;;3.42;;
44486;SDS011;30191;50.908;6.962;2023-12-20T08:48:22;13.63;;;3.53;;
44486;SDS011;30191;50.908;6.962;2023-12-20T08:50:48;14.60;;;3.15;;
44486;SDS011;30191;50.908;6.962;2023-12-20T08:53:15;15.35;;;3.53;;
44486;SDS011;30191;50.908;6.962;2023-12-20T08:55:42;14.57;;;3.03;;
44486;SDS011;30191;50.908;6.962;2023-12-20T08:58:07;11.02;;;2.85;;
44486;SDS011;30191;50.908;6.962;2023-12-20T09:00:33;20.98;;;3.63;;
44486;SDS011;30191;50.908;6.962;2023-12-20T09:02:59;18.00;;;3.85;;
44486;SDS011;30191;50.908;6.962;2023-12-20T09:05:26;18.95;;;3.42;;
44486;SDS011;30191;50.908;6.962;2023-12-20T09:07:52;10.30;;;3.08;;
44486;SDS011;30191;50.908;6.962;2023-12-20T09:10:17;18.55;;;3.78;;
44486;SDS011;30191;50.908;6.962;2023-12-20T09:12:47;14.27;;;3.20;;
44486;SDS011;30191;50.908;6.962;2023-12-20T09:15:14;15.82;;;3.47;;
44486;SDS011;30191;50.908;6.962;2023-12-20T09:17:40;16.05;;;3.25;;
44486;SDS011;30191;50.908;6.962;2023-12-20T09:20:06;12.50;;;2.83;;
44486;SDS011;30191;50.908;6.962;2023-12-20T09:22:33;16.95;;;3.92;;
44486;SDS011;30191;50.908;6.962;2023-12-20T09:24:59;12.93;;;3.40;;
44486;SDS011;30191;50.908;6.962;2023-12-20T09:27:25;13.50;;;3.17;;
44486;SDS011;30191;50.908;6.962;2023-12-20T09:29:51;17.23;;;3.17;;
44486;SDS011;30191;50.908;6.962;2023-12-20T09:32:18;17.63;;;3.03;;
44486;SDS011;30191;50.908;6.962;2023-12-20T09:34:45;13.93;;;3.15;;
44486;SDS011;30191;50.908;6.962;2023-12-20T09:37:12;18.30;;;3.08;;
44486;SDS011;30191;50.908;6.962;2023-12-20T09:39:38;17.02;;;2.70;;
44486;SDS011;30191;50.908;6.962;2023-12-20T09:42:04;16.90;;;3.20;;
44486;SDS011;30191;50.908;6.962;2023-12-20T09:44:31;19.98;;;3.15;;
44486;SDS011;30191;50.908;6.962;2023-12-20T09:47:04;11.65;;;2.97;;
44486;SDS011;30191;50.908;6.962;2023-12-20T09:49:31;15.40;;;3.37;;
44486;SDS011;30191;50.908;6.962;2023-12-20T09:51:58;18.27;;;3.50;;
44486;SDS011;30191;50.908;6.962;2023-12-20T09:54:25;15.40;;;3.05;;
44486;SDS011;30191;50.908;6.962;2023-12-20T09:56:53;19.02;;;2.95;;
44486;SDS011;30191;50.908;6.962;2023-12-20T09:59:19;17.02;;;3.08;;
44486;SDS011;30191;50.908;6.962;2023-12-20T10:01:45;18.05;;;3.28;;
44486;SDS011;30191;50.908;6.962;2023-12-20T10:04:11;13.90;;;3.45;;
44486;SDS011;30191;50.908;6.962;2023-12-20T10:06:40;15.95;;;3.10;;
44486;SDS011;30191;50.908;6.962;2023-12-20T10:09:07;16.83;;;3.10;;
44486;SDS011;30191;50.908;6.962;2023-12-20T10:11:34;15.90;;;2.30;;
44486;SDS011;30191;50.908;6.962;2023-12-20T10:14:02;15.57;;;2.65;;
44486;SDS011;30191;50.908;6.962;2023-12-20T10:16:29;15.52;;;3.17;;
44486;SDS011;30191;50.908;6.962;2023-12-20T10:18:55;14.95;;;2.95;;
44486;SDS011;30191;50.908;6.962;2023-12-20T10:21:21;14.93;;;3.08;;
44486;SDS011;30191;50.908;6.962;2023-12-20T10:23:51;13.23;;;2.72;;
44486;SDS011;30191;50.908;6.962;2023-12-20T10:26:24;13.80;;;3.05;;
44486;SDS011;30191;50.908;6.962;2023-12-20T10:28:52;16.98;;;2.72;;
44486;SDS011;30191;50.908;6.962;2023-12-20T10:33:55;14.77;;;2.92;;
44486;SDS011;30191;50.908;6.962;2023-12-20T10:36:25;15.68;;;2.70;;
44486;SDS011;30191;50.908;6.962;2023-12-20T10:38:52;12.57;;;2.72;;
44486;SDS011;30191;50.908;6.962;2023-12-20T10:41:25;16.08;;;3.10;;
44486;SDS011;30191;50.908;6.962;2023-12-20T10:43:58;13.15;;;2.85;;
44486;SDS011;30191;50.908;6.962;2023-12-20T10:46:28;11.40;;;2.70;;
44486;SDS011;30191;50.908;6.962;2023-12-20T10:48:55;12.70;;;2.70;;
44486;SDS011;30191;50.908;6.962;2023-12-20T10:51:22;15.88;;;3.05;;
44486;SDS011;30191;50.908;6.962;2023-12-20T10:53:51;13.85;;;2.70;;
44486;SDS011;30191;50.908;6.962;2023-12-20T10:56:18;13.82;;;2.55;;
44486;SDS011;30191;50.908;6.962;2023-12-20T10:58:45;14.10;;;2.80;;
44486;SDS011;30191;50.908;6.962;2023-12-20T11:01:15;15.18;;;2.63;;
44486;SDS011;30191;50.908;6.962;2023-12-20T11:03:44;14.35;;;2.67;;
44486;SDS011;30191;50.908;6.962;2023-12-20T11:14:23;16.30;;;2.92;;
44486;SDS011;30191;50.908;6.962;2023-12-20T11:17:09;13.15;;;2.88;;
44486;SDS011;30191;50.908;6.962;2023-12-20T11:20:24;15.60;;;2.72;;
44486;SDS011;30191;50.908;6.962;2023-12-20T11:22:27;9.38;;;2.35;;
44486;SDS011;30191;50.908;6.962;2023-12-20T11:28:08;16.60;;;3.08;;
44486;SDS011;30191;50.908;6.962;2023-12-20T11:30:41;11.18;;;2.40;;
44486;SDS011;30191;50.908;6.962;2023-12-20T11:33:12;12.38;;;2.70;;
44486;SDS011;30191;50.908;6.962;2023-12-20T11:35:39;18.65;;;3.00;;
44486;SDS011;30191;50.908;6.962;2023-12-20T11:38:09;10.30;;;2.65;;
44486;SDS011;30191;50.908;6.962;2023-12-20T11:40:35;18.45;;;3.20;;
44486;SDS011;30191;50.908;6.962;2023-12-20T11:43:02;13.70;;;2.85;;
44486;SDS011;30191;50.908;6.962;2023-12-20T11:45:28;12.23;;;2.78;;
44486;SDS011;30191;50.908;6.962;2023-12-20T11:47:54;16.00;;;2.85;;
44486;SDS011;30191;50.908;6.962;2023-12-20T11:50:22;17.30;;;3.05;;
44486;SDS011;30191;50.908;6.962;2023-12-20T11:52:49;13.15;;;2.72;;
44486;SDS011;30191;50.908;6.962;2023-12-20T11:55:16;13.13;;;2.63;;
44486;SDS011;30191;50.908;6.962;2023-12-20T11:57:42;15.63;;;2.97;;
44486;SDS011;30191;50.908;6.962;2023-12-20T12:00:10;11.13;;;2.20;;
44486;SDS011;30191;50.908;6.962;2023-12-20T12:02:36;9.70;;;2.55;;
44486;SDS011;30191;50.908;6.962;2023-12-20T12:05:02;14.00;;;2.30;;
44486;SDS011;30191;50.908;6.962;2023-12-20T12:07:30;13.80;;;2.38;;
44486;SDS011;30191;50.908;6.962;2023-12-20T12:09:56;15.40;;;2.72;;
44486;SDS011;30191;50.908;6.962;2023-12-20T12:12:23;14.38;;;2.28;;
44486;SDS011;30191;50.908;6.962;2023-12-20T12:14:50;13.13;;;2.50;;
44486;SDS011;30191;50.908;6.962;2023-12-20T12:17:16;11.32;;;2.30;;
44486;SDS011;30191;50.908;6.962;2023-12-20T12:19:42;11.60;;;2.20;;
44486;SDS011;30191;50.908;6.962;2023-12-20T12:22:10;14.45;;;2.65;;
44486;SDS011;30191;50.908;6.962;2023-12-20T12:24:42;16.80;;;2.75;;
44486;SDS011;30191;50.908;6.962;2023-12-20T12:27:09;15.95;;;3.25;;
44486;SDS011;30191;50.908;6.962;2023-12-20T12:29:35;13.32;;;2.70;;
44486;SDS011;30191;50.908;6.962;2023-12-20T12:32:08;18.35;;;2.78;;
44486;SDS011;30191;50.908;6.962;2023-12-20T12:34:34;12.52;;;2.70;;
44486;SDS011;30191;50.908;6.962;2023-12-20T12:37:01;14.65;;;3.05;;
44486;SDS011;30191;50.908;6.962;2023-12-20T12:39:28;11.15;;;2.67;;
44486;SDS011;30191;50.908;6.962;2023-12-20T12:41:55;11.57;;;2.83;;
44486;SDS011;30191;50.908;6.962;2023-12-20T12:44:21;12.77;;;2.80;;
44486;SDS011;30191;50.908;6.962;2023-12-20T12:46:48;14.05;;;2.50;;
44486;SDS011;30191;50.908;6.962;2023-12-20T12:49:19;13.20;;;2.70;;
44486;SDS011;30191;50.908;6.962;2023-12-20T12:51:45;15.55;;;3.00;;
44486;SDS011;30191;50.908;6.962;2023-12-20T12:54:10;12.95;;;2.63;;
44486;SDS011;30191;50.908;6.962;2023-12-20T12:56:38;14.18;;;3.08;;
44486;SDS011;30191;50.908;6.962;2023-12-20T12:59:04;16.23;;;2.75;;
44486;SDS011;30191;50.908;6.962;2023-12-20T13:01:30;14.40;;;2.90;;
44486;SDS011;30191;50.908;6.962;2023-12-20T13:03:56;17.02;;;3.42;;
44486;SDS011;30191;50.908;6.962;2023-12-20T13:06:22;12.48;;;3.00;;
44486;SDS011;30191;50.908;6.962;2023-12-20T13:08:48;14.82;;;2.47;;
44486;SDS011;30191;50.908;6.962;2023-12-20T13:11:13;12.48;;;3.03;;
44486;SDS011;30191;50.908;6.962;2023-12-20T13:13:39;11.25;;;2.90;;
44486;SDS011;30191;50.908;6.962;2023-12-20T13:16:05;11.45;;;3.42;;
44486;SDS011;30191;50.908;6.962;2023-12-20T13:18:31;12.10;;;2.83;;
44486;SDS011;30191;50.908;6.962;2023-12-20T13:20:56;14.43;;;3.17;;
44486;SDS011;30191;50.908;6.962;2023-12-20T13:23:22;16.77;;;3.53;;
44486;SDS011;30191;50.908;6.962;2023-12-20T13:25:48;15.10;;;3.15;;
44486;SDS011;30191;50.908;6.962;2023-12-20T13:28:13;15.75;;;3.63;;
44486;SDS011;30191;50.908;6.962;2023-12-20T13:30:39;10.43;;;3.05;;
44486;SDS011;30191;50.908;6.962;2023-12-20T13:33:05;14.43;;;3.08;;
44486;SDS011;30191;50.908;6.962;2023-12-20T13:35:31;17.80;;;3.22;;
44486;SDS011;30191;50.908;6.962;2023-12-20T13:37:58;14.52;;;3.08;;
44486;SDS011;30191;50.908;6.962;2023-12-20T13:40:24;14.57;;;3.22;;
44486;SDS011;30191;50.908;6.962;2023-12-20T13:42:50;12.30;;;2.78;;
44486;SDS011;30191;50.908;6.962;2023-12-20T13:45:15;13.85;;;3.03;;
44486;SDS011;30191;50.908;6.962;2023-12-20T13:47:41;11.75;;;3.20;;
44486;SDS011;30191;50.908;6.962;2023-12-20T13:50:07;13.35;;;3.03;;
44486;SDS011;30191;50.908;6.962;2023-12-20T13:52:33;12.10;;;2.97;;
44486;SDS011;30191;50.908;6.962;2023-12-20T13:54:58;16.48;;;3.22;;
44486;SDS011;30191;50.908;6.962;2023-12-20T13:57:24;15.93;;;2.88;;
44486;SDS011;30191;50.908;6.962;2023-12-20T13:59:50;10.15;;;3.35;;
44486;SDS011;30191;50.908;6.962;2023-12-20T14:02:15;12.05;;;2.80;;
44486;SDS011;30191;50.908;6.962;2023-12-20T14:04:44;10.23;;;2.38;;
44486;SDS011;30191;50.908;6.962;2023-12-20T14:07:10;9.55;;;2.80;;
44486;SDS011;30191;50.908;6.962;2023-12-20T14:09:35;13.52;;;2.50;;
44486;SDS011;30191;50.908;6.962;2023-12-20T14:12:01;15.25;;;2.83;;
44486;SDS011;30191;50.908;6.962;2023-12-20T14:14:27;14.43;;;2.63;;
44486;SDS011;30191;50.908;6.962;2023-12-20T14:16:52;10.32;;;2.42;;
44486;SDS011;30191;50.908;6.962;2023-12-20T14:19:18;10.50;;;2.60;;
44486;SDS011;30191;50.908;6.962;2023-12-20T14:21:44;11.23;;;2.67;;
44486;SDS011;30191;50.908;6.962;2023-12-20T14:24:12;10.70;;;2.40;;
44486;SDS011;30191;50.908;6.962;2023-12-20T14:26:39;9.38;;;2.33;;
44486;SDS011;30191;50.908;6.962;2023-12-20T14:29:08;14.48;;;2.28;;
44486;SDS011;30191;50.908;6.962;2023-12-20T14:31:34;11.40;;;2.45;;
44486;SDS011;30191;50.908;6.962;2023-12-20T14:34:00;9.48;;;2.20;;
44486;SDS011;30191;50.908;6.962;2023-12-20T14:36:28;10.57;;;2.50;;
44486;SDS011;30191;50.908;6.962;2023-12-20T14:38:57;6.70;;;2.15;;
44486;SDS011;30191;50.908;6.962;2023-12-20T14:41:23;7.15;;;2.00;;
44486;SDS011;30191;50.908;6.962;2023-12-20T14:43:50;9.88;;;2.35;;